createdAt,value
2018-07-11T00:00:30.831Z,12.23
2018-07-11T00:01:39.477Z,12.28
2018-07-11T00:02:48.118Z,12.23
2018-07-11T00:03:57.025Z,12.23
2018-07-11T00:05:05.672Z,12.14
2018-07-11T00:06:14.321Z,12.17
2018-07-11T00:07:23.485Z,12.25
2018-07-11T00:08:32.126Z,12.18
2018-07-11T00:09:40.775Z,12.23
2018-07-11T00:10:49.417Z,12.29
2018-07-11T00:11:58.062Z,12.18
2018-07-11T00:13:06.702Z,12.14
2018-07-11T00:14:15.348Z,12.2
2018-07-11T00:15:23.993Z,12.25
2018-07-11T00:16:32.907Z,12.26
2018-07-11T00:17:41.553Z,12.25
2018-07-11T00:18:50.193Z,12.14
2018-07-11T00:19:58.838Z,12.17
2018-07-11T00:21:07.482Z,12.14
2018-07-11T00:22:16.130Z,12.17
2018-07-11T00:23:24.769Z,12.17
2018-07-11T00:24:33.414Z,12.23
2018-07-11T00:25:42.060Z,12.29
2018-07-11T00:26:50.709Z,12.28
2018-07-11T00:27:59.350Z,12.36
2018-07-11T00:29:07.993Z,12.43
2018-07-11T00:30:16.635Z,12.45
2018-07-11T00:31:25.283Z,12.5
2018-07-11T00:32:33.923Z,12.55
2018-07-11T00:33:42.566Z,12.53
2018-07-11T00:34:51.211Z,12.55
2018-07-11T00:35:59.859Z,12.55
2018-07-11T00:37:09.196Z,12.53
2018-07-11T00:38:18.025Z,12.61
2018-07-11T00:39:26.667Z,12.68
2018-07-11T00:40:35.308Z,12.66
2018-07-11T00:41:43.956Z,12.62
2018-07-11T00:42:52.607Z,12.72
2018-07-11T00:44:01.249Z,12.68
2018-07-11T00:45:09.888Z,12.73
2018-07-11T00:46:18.802Z,12.72
2018-07-11T00:47:27.442Z,12.8
2018-07-11T00:48:36.088Z,12.81
2018-07-11T00:49:44.721Z,12.84
2018-07-11T00:50:53.629Z,12.8
2018-07-11T00:52:02.277Z,12.81
2018-07-11T00:53:11.188Z,12.78
2018-07-11T00:54:19.831Z,12.83
2018-07-11T00:55:28.486Z,12.9
2018-07-11T00:56:37.125Z,12.83
2018-07-11T00:57:45.777Z,12.91
2018-07-11T00:58:54.411Z,12.87
2018-07-11T01:00:03.068Z,12.86
2018-07-11T01:01:11.708Z,12.84
2018-07-11T01:02:20.356Z,12.88
2018-07-11T01:03:28.994Z,12.86
2018-07-11T01:04:37.646Z,12.86
2018-07-11T01:05:46.287Z,12.86
2018-07-11T01:06:54.935Z,12.9
2018-07-11T01:08:03.574Z,12.86
2018-07-11T01:09:12.217Z,12.8
2018-07-11T01:10:20.871Z,12.88
2018-07-11T01:11:29.514Z,12.84
2018-07-11T01:12:38.160Z,12.91
2018-07-11T01:13:46.795Z,12.84
2018-07-11T01:14:55.447Z,12.84
2018-07-11T01:16:04.078Z,12.88
2018-07-11T01:17:12.732Z,12.9
2018-07-11T01:18:21.364Z,12.86
2018-07-11T01:19:30.012Z,12.81
2018-07-11T01:20:38.659Z,12.83
2018-07-11T01:21:47.314Z,12.81
2018-07-11T01:22:55.945Z,12.72
2018-07-11T01:24:04.590Z,12.73
2018-07-11T01:25:13.230Z,12.75
2018-07-11T01:26:21.881Z,12.7
2018-07-11T01:27:30.521Z,12.65
2018-07-11T01:28:39.161Z,12.65
2018-07-11T01:29:47.801Z,12.57
2018-07-11T01:30:56.443Z,12.57
2018-07-11T01:32:05.094Z,12.54
2018-07-11T01:33:13.998Z,12.57
2018-07-11T01:34:22.647Z,12.51
2018-07-11T01:35:31.280Z,12.5
2018-07-11T01:36:39.932Z,12.57
2018-07-11T01:37:48.570Z,12.51
2018-07-11T01:38:57.219Z,12.45
2018-07-11T01:40:06.114Z,12.33
2018-07-11T01:41:14.765Z,12.39
2018-07-11T01:42:23.406Z,12.26
2018-07-11T01:43:32.316Z,12.37
2018-07-11T01:44:40.952Z,12.29
2018-07-11T01:45:49.598Z,12.29
2018-07-11T01:46:58.511Z,12.29
2018-07-11T01:48:07.157Z,12.28
2018-07-11T01:49:15.805Z,12.29
2018-07-11T01:50:24.432Z,12.14
2018-07-11T01:51:33.080Z,12.15
2018-07-11T01:52:41.723Z,12.23
2018-07-11T01:53:50.369Z,12.15
2018-07-11T01:54:59.008Z,12.2
2018-07-11T01:56:07.659Z,12.21
2018-07-11T01:57:16.561Z,12.15
2018-07-11T01:58:25.210Z,12.11
2018-07-11T01:59:33.858Z,12.17
2018-07-11T02:00:42.754Z,12.11
2018-07-11T02:01:51.394Z,12.1
2018-07-11T02:03:00.042Z,12.07
2018-07-11T02:04:08.686Z,12.03
2018-07-11T02:05:17.601Z,11.95
2018-07-11T02:06:26.242Z,11.97
2018-07-11T02:07:34.884Z,11.93
2018-07-11T02:08:43.528Z,11.95
2018-07-11T02:09:52.173Z,11.86
2018-07-11T02:11:01.086Z,11.89
2018-07-11T02:12:09.989Z,11.86
2018-07-11T02:13:18.638Z,11.89
2018-07-11T02:14:27.280Z,11.83
2018-07-11T02:15:35.924Z,11.89
2018-07-11T02:16:44.564Z,11.78
2018-07-11T02:17:53.209Z,11.77
2018-07-11T02:19:01.852Z,11.77
2018-07-11T02:20:10.495Z,11.76
2018-07-11T02:21:19.400Z,11.74
2018-07-11T02:22:28.044Z,11.73
2018-07-11T02:23:36.687Z,11.71
2018-07-11T02:24:45.337Z,11.67
2018-07-11T02:25:54.242Z,11.68
2018-07-11T02:27:02.879Z,11.65
2018-07-11T02:28:11.522Z,11.68
2018-07-11T02:29:20.165Z,11.65
2018-07-11T02:30:28.818Z,11.67
2018-07-11T02:31:37.452Z,11.6
2018-07-11T02:32:46.098Z,11.6
2018-07-11T02:33:54.741Z,11.58
2018-07-11T02:35:03.390Z,11.6
2018-07-11T02:36:12.031Z,11.55
2018-07-11T02:37:20.680Z,11.59
2018-07-11T02:38:29.320Z,11.62
2018-07-11T02:39:38.228Z,11.62
2018-07-11T02:40:46.870Z,11.63
2018-07-11T02:41:55.520Z,11.58
2018-07-11T02:43:04.440Z,11.55
2018-07-11T02:44:13.084Z,11.48
2018-07-11T02:45:21.997Z,11.53
2018-07-11T02:46:30.649Z,11.49
2018-07-11T02:47:39.558Z,11.49
2018-07-11T02:48:48.202Z,11.44
2018-07-11T02:49:56.856Z,11.43
2018-07-11T02:51:05.763Z,11.33
2018-07-11T02:52:14.412Z,11.3
2018-07-11T02:53:23.065Z,11.43
2018-07-11T02:54:31.968Z,11.44
2018-07-11T02:55:40.881Z,11.31
2018-07-11T02:56:50.060Z,11.34
2018-07-11T02:57:59.238Z,11.33
2018-07-11T02:59:07.887Z,11.26
2018-07-11T03:00:16.528Z,11.35
2018-07-11T03:01:25.170Z,11.27
2018-07-11T03:02:33.810Z,11.25
2018-07-11T03:03:42.460Z,11.31
2018-07-11T03:04:51.197Z,11.25
2018-07-11T03:05:59.937Z,11.23
2018-07-11T03:07:08.573Z,11.27
2018-07-11T03:08:17.218Z,11.2
2018-07-11T03:09:25.863Z,11.3
2018-07-11T03:10:34.768Z,11.26
2018-07-11T03:11:43.678Z,11.27
2018-07-11T03:12:52.330Z,11.25
2018-07-11T03:14:00.971Z,11.26
2018-07-11T03:15:09.621Z,11.15
2018-07-11T03:16:18.524Z,11.19
2018-07-11T03:17:27.180Z,11.22
2018-07-11T03:18:36.089Z,11.2
2018-07-11T03:19:44.734Z,11.19
2018-07-11T03:20:53.391Z,11.2
2018-07-11T03:22:02.292Z,11.22
2018-07-11T03:23:10.933Z,11.23
2018-07-11T03:24:19.573Z,11.08
2018-07-11T03:25:28.227Z,11.19
2018-07-11T03:26:37.134Z,11.19
2018-07-11T03:27:45.776Z,11.16
2018-07-11T03:28:54.418Z,11.18
2018-07-11T03:30:03.065Z,11.1
2018-07-11T03:31:11.741Z,11.13
2018-07-11T03:32:20.669Z,11.12
2018-07-11T03:33:29.303Z,11.08
2018-07-11T03:34:38.210Z,11.13
2018-07-11T03:35:46.851Z,11.1
2018-07-11T03:36:55.490Z,11.07
2018-07-11T03:38:04.131Z,11.12
2018-07-11T03:39:12.768Z,11.07
2018-07-11T03:40:21.415Z,11.08
2018-07-11T03:41:30.057Z,11.08
2018-07-11T03:42:38.700Z,11.04
2018-07-11T03:43:47.339Z,11.04
2018-07-11T03:44:55.983Z,11.05
2018-07-11T03:46:04.628Z,11.05
2018-07-11T03:47:13.531Z,11.04
2018-07-11T03:48:22.167Z,10.95
2018-07-11T03:49:30.819Z,11.04
2018-07-11T03:50:39.459Z,11.12
2018-07-11T03:51:48.106Z,11.08
2018-07-11T03:52:56.737Z,11.05
2018-07-11T03:54:05.384Z,11.16
2018-07-11T03:55:14.292Z,11.1
2018-07-11T03:56:23.198Z,11.1
2018-07-11T03:57:32.107Z,11.07
2018-07-11T03:58:40.740Z,11.16
2018-07-11T03:59:49.650Z,11.05
2018-07-11T04:00:58.288Z,11.1
2018-07-11T04:02:06.938Z,11.07
2018-07-11T04:03:15.574Z,11.1
2018-07-11T04:04:24.501Z,11
2018-07-11T04:05:33.129Z,10.92
2018-07-11T04:06:41.782Z,10.98
2018-07-11T04:07:50.416Z,11.01
2018-07-11T04:08:59.061Z,10.97
2018-07-11T04:10:07.700Z,11.02
2018-07-11T04:11:16.352Z,10.98
2018-07-11T04:12:24.993Z,10.94
2018-07-11T04:13:33.633Z,10.98
2018-07-11T04:14:42.272Z,11.1
2018-07-11T04:15:50.911Z,11
2018-07-11T04:16:59.565Z,10.92
2018-07-11T04:18:08.200Z,11.01
2018-07-11T04:19:16.845Z,11
2018-07-11T04:20:25.482Z,10.94
2018-07-11T04:21:34.396Z,11.07
2018-07-11T04:22:43.034Z,10.97
2018-07-11T04:23:51.680Z,11.01
2018-07-11T04:25:00.308Z,11
2018-07-11T04:26:09.219Z,11.05
2018-07-11T04:27:17.862Z,11.02
2018-07-11T04:28:26.506Z,11.01
2018-07-11T04:29:35.139Z,11.08
2018-07-11T04:30:43.783Z,10.98
2018-07-11T04:31:52.430Z,11.01
2018-07-11T04:33:01.073Z,11
2018-07-11T04:34:09.988Z,11.01
2018-07-11T04:35:18.626Z,10.98
2018-07-11T04:36:27.275Z,11.02
2018-07-11T04:37:35.910Z,11.05
2018-07-11T04:38:44.561Z,11.02
2018-07-11T04:39:53.203Z,11.04
2018-07-11T04:41:01.851Z,11.05
2018-07-11T04:42:10.757Z,11.05
2018-07-11T04:43:19.409Z,11.05
2018-07-11T04:44:28.042Z,11.1
2018-07-11T04:45:36.686Z,11.13
2018-07-11T04:46:45.329Z,11.07
2018-07-11T04:47:53.976Z,11.13
2018-07-11T04:49:02.613Z,11.1
2018-07-11T04:50:11.256Z,11.12
2018-07-11T04:51:19.894Z,11.08
2018-07-11T04:52:28.541Z,11.12
2018-07-11T04:53:37.189Z,11.15
2018-07-11T04:54:45.834Z,11.08
2018-07-11T04:55:54.474Z,11.19
2018-07-11T04:57:03.380Z,11.16
2018-07-11T04:58:12.027Z,11.2
2018-07-11T04:59:20.673Z,11.2
2018-07-11T05:00:29.579Z,11.22
2018-07-11T05:01:38.212Z,11.2
2018-07-11T05:02:46.859Z,11.25
2018-07-11T05:03:55.495Z,11.22
2018-07-11T05:05:04.142Z,11.26
2018-07-11T05:06:13.048Z,11.23
2018-07-11T05:07:21.951Z,11.31
2018-07-11T05:08:30.593Z,11.26
2018-07-11T05:09:39.239Z,11.33
2018-07-11T05:10:47.939Z,11.38
2018-07-11T05:11:56.522Z,11.25
2018-07-11T05:13:05.166Z,11.38
2018-07-11T05:14:13.812Z,11.38
2018-07-11T05:15:22.467Z,11.45
2018-07-11T05:16:31.100Z,11.53
2018-07-11T05:17:39.741Z,11.58
2018-07-11T05:18:48.385Z,11.71
2018-07-11T05:19:57.294Z,11.8
2018-07-11T05:21:06.197Z,11.85
2018-07-11T05:22:15.368Z,11.81
2018-07-11T05:23:24.007Z,11.99
2018-07-11T05:24:32.659Z,12.02
2018-07-11T05:25:41.300Z,12.07
2018-07-11T05:26:49.943Z,12.1
2018-07-11T05:27:58.583Z,12.18
2018-07-11T05:29:07.224Z,12.2
2018-07-11T05:30:15.874Z,12.17
2018-07-11T05:31:24.517Z,12.18
2018-07-11T05:32:33.158Z,12.14
2018-07-11T05:33:41.797Z,12.12
2018-07-11T05:34:50.444Z,12.18
2018-07-11T05:35:59.367Z,12.28
2018-07-11T05:37:08.004Z,12.39
2018-07-11T05:38:16.640Z,12.5
2018-07-11T05:39:25.289Z,12.48
2018-07-11T05:40:33.928Z,12.51
2018-07-11T05:41:42.575Z,12.61
2018-07-11T05:42:51.214Z,12.57
2018-07-11T05:43:59.861Z,12.66
2018-07-11T05:45:08.506Z,12.72
2018-07-11T05:46:17.155Z,12.78
2018-07-11T05:47:25.801Z,12.8
2018-07-11T05:48:34.436Z,12.86
2018-07-11T05:49:43.083Z,12.86
2018-07-11T05:50:51.723Z,12.9
2018-07-11T05:52:00.424Z,12.88
2018-07-11T05:53:09.012Z,12.98
2018-07-11T05:54:17.658Z,13.19
2018-07-11T05:55:26.300Z,13.11
2018-07-11T05:56:34.951Z,13.28
2018-07-11T05:57:43.589Z,13.37
2018-07-11T05:58:52.239Z,13.39
2018-07-11T06:00:00.940Z,13.47
2018-07-11T06:01:09.532Z,13.55
2018-07-11T06:02:18.174Z,13.52
2018-07-11T06:03:27.086Z,13.58
2018-07-11T06:04:35.729Z,13.6
2018-07-11T06:05:44.632Z,13.67
2018-07-11T06:06:53.552Z,13.76
2018-07-11T06:08:02.457Z,13.85
2018-07-11T06:09:11.104Z,13.93
2018-07-11T06:10:19.740Z,13.95
2018-07-11T06:11:28.393Z,14.19
2018-07-11T06:12:37.031Z,14.18
2018-07-11T06:13:45.720Z,14.28
2018-07-11T06:14:54.317Z,14.23
2018-07-11T06:16:02.974Z,14.41
2018-07-11T06:17:11.616Z,14.43
2018-07-11T06:18:20.265Z,14.51
2018-07-11T06:19:28.902Z,14.56
2018-07-11T06:20:37.551Z,14.61
2018-07-11T06:21:46.193Z,14.7
2018-07-11T06:22:54.841Z,14.63
2018-07-11T06:24:03.486Z,14.7
2018-07-11T06:25:12.404Z,14.77
2018-07-11T06:26:21.053Z,14.68
2018-07-11T06:27:29.696Z,14.92
2018-07-11T06:28:38.616Z,14.92
2018-07-11T06:29:47.253Z,14.87
2018-07-11T06:30:55.902Z,15.02
2018-07-11T06:32:04.540Z,15.19
2018-07-11T06:33:13.199Z,15.19
2018-07-11T06:34:21.837Z,15.26
2018-07-11T06:35:30.485Z,15.36
2018-07-11T06:36:39.129Z,15.52
2018-07-11T06:37:48.234Z,15.45
2018-07-11T06:38:56.860Z,15.65
2018-07-11T06:40:05.503Z,15.67
2018-07-11T06:41:14.141Z,15.78
2018-07-11T06:42:22.783Z,15.78
2018-07-11T06:43:31.437Z,15.85
2018-07-11T06:44:40.263Z,15.84
2018-07-11T06:45:48.905Z,15.9
2018-07-11T06:46:57.558Z,15.87
2018-07-11T06:48:06.467Z,15.87
2018-07-11T06:49:15.122Z,15.99
2018-07-11T06:50:23.759Z,16.08
2018-07-11T06:51:32.675Z,16.16
2018-07-11T06:52:41.318Z,16.25
2018-07-11T06:53:49.969Z,16.24
2018-07-11T06:54:58.873Z,16.44
2018-07-11T06:56:07.887Z,16.46
2018-07-11T06:57:16.835Z,16.41
2018-07-11T06:58:25.470Z,16.43
2018-07-11T06:59:34.113Z,16.57
2018-07-11T07:00:42.760Z,16.58
2018-07-11T07:01:51.412Z,16.57
2018-07-11T07:03:00.061Z,16.62
2018-07-11T07:04:08.713Z,16.58
2018-07-11T07:05:17.350Z,16.69
2018-07-11T07:06:26.011Z,16.68
2018-07-11T07:07:34.653Z,16.73
2018-07-11T07:08:43.308Z,16.73
2018-07-11T07:09:51.943Z,16.86
2018-07-11T07:11:00.615Z,16.82
2018-07-11T07:12:09.335Z,16.99
2018-07-11T07:13:18.423Z,17.04
2018-07-11T07:14:27.060Z,17.2
2018-07-11T07:15:35.711Z,17.3
2018-07-11T07:16:44.362Z,17.32
2018-07-11T07:17:53.009Z,17.27
2018-07-11T07:19:01.660Z,17.32
2018-07-11T07:20:10.298Z,17.34
2018-07-11T07:21:19.230Z,17.32
2018-07-11T07:22:27.963Z,17.41
2018-07-11T07:23:36.602Z,17.52
2018-07-11T07:24:45.241Z,17.44
2018-07-11T07:25:53.907Z,17.59
2018-07-11T07:27:02.568Z,17.72
2018-07-11T07:28:11.252Z,17.66
2018-07-11T07:29:19.892Z,17.73
2018-07-11T07:30:28.548Z,17.72
2018-07-11T07:31:37.461Z,17.76
2018-07-11T07:32:46.122Z,17.78
2018-07-11T07:33:54.765Z,17.71
2018-07-11T07:35:03.413Z,17.66
2018-07-11T07:36:12.102Z,17.66
2018-07-11T07:37:20.703Z,17.56
2018-07-11T07:38:29.359Z,17.63
2018-07-11T07:39:38.273Z,17.66
2018-07-11T07:40:46.924Z,17.59
2018-07-11T07:41:55.562Z,17.54
2018-07-11T07:43:04.214Z,17.56
2018-07-11T07:44:12.859Z,17.53
2018-07-11T07:45:21.506Z,17.53
2018-07-11T07:46:30.152Z,17.57
2018-07-11T07:47:38.807Z,17.68
2018-07-11T07:48:47.726Z,17.75
2018-07-11T07:49:56.631Z,17.71
2018-07-11T07:51:05.273Z,17.75
2018-07-11T07:52:13.920Z,17.86
2018-07-11T07:53:22.567Z,17.87
2018-07-11T07:54:31.486Z,17.97
2018-07-11T07:55:40.136Z,17.95
2018-07-11T07:56:48.777Z,18
2018-07-11T07:57:57.428Z,18.15
2018-07-11T07:59:06.076Z,18.26
2018-07-11T08:00:14.732Z,18.24
2018-07-11T08:01:23.371Z,18.26
2018-07-11T08:02:32.284Z,18.24
2018-07-11T08:03:40.934Z,18.27
2018-07-11T08:04:49.584Z,18.33
2018-07-11T08:05:58.226Z,18.28
2018-07-11T08:07:06.876Z,18.26
2018-07-11T08:08:15.858Z,18.36
2018-07-11T08:09:24.513Z,18.37
2018-07-11T08:10:33.156Z,18.43
2018-07-11T08:11:41.804Z,18.55
2018-07-11T08:12:50.449Z,18.52
2018-07-11T08:13:59.102Z,18.58
2018-07-11T08:15:07.751Z,18.64
2018-07-11T08:16:16.404Z,18.76
2018-07-11T08:17:25.050Z,18.89
2018-07-11T08:18:33.955Z,18.96
2018-07-11T08:19:42.880Z,19.01
2018-07-11T08:20:51.794Z,18.96
2018-07-11T08:22:00.440Z,19.01
2018-07-11T08:23:09.086Z,19
2018-07-11T08:24:17.740Z,19.01
2018-07-11T08:25:26.393Z,19.07
2018-07-11T08:26:35.042Z,19.12
2018-07-11T08:27:43.685Z,19.15
2018-07-11T08:28:52.591Z,19.12
2018-07-11T08:30:01.238Z,19.27
2018-07-11T08:31:10.153Z,19.24
2018-07-11T08:32:18.806Z,19.24
2018-07-11T08:33:27.451Z,19.24
2018-07-11T08:34:36.103Z,19.23
2018-07-11T08:35:45.086Z,19.16
2018-07-11T08:36:54.001Z,19.19
2018-07-11T08:38:02.644Z,19.11
2018-07-11T08:39:11.556Z,19.05
2018-07-11T08:40:20.207Z,18.98
2018-07-11T08:41:28.858Z,18.88
2018-07-11T08:42:37.504Z,18.79
2018-07-11T08:43:46.194Z,18.76
2018-07-11T08:44:55.071Z,18.73
2018-07-11T08:46:03.723Z,18.66
2018-07-11T08:47:12.369Z,18.68
2018-07-11T08:48:21.853Z,18.57
2018-07-11T08:49:30.855Z,18.49
2018-07-11T08:50:39.767Z,18.49
2018-07-11T08:51:48.424Z,18.42
2018-07-11T08:52:57.073Z,18.45
2018-07-11T08:54:05.723Z,18.39
2018-07-11T08:55:14.368Z,18.41
2018-07-11T08:56:23.020Z,18.33
2018-07-11T08:57:31.666Z,18.21
2018-07-11T08:58:40.319Z,18.21
2018-07-11T08:59:48.963Z,18.27
2018-07-11T09:00:57.617Z,18.19
2018-07-11T09:02:06.260Z,18.18
2018-07-11T09:03:14.914Z,18.09
2018-07-11T09:04:23.553Z,18.09
2018-07-11T09:05:33.276Z,18.09
2018-07-11T09:06:41.993Z,18.02
2018-07-11T09:07:50.643Z,18.08
2018-07-11T09:08:59.317Z,18.03
2018-07-11T09:10:07.967Z,17.95
2018-07-11T09:11:16.816Z,17.88
2018-07-11T09:12:25.483Z,17.91
2018-07-11T09:13:34.146Z,17.8
2018-07-11T09:14:42.803Z,17.94
2018-07-11T09:15:51.454Z,17.82
2018-07-11T09:17:00.111Z,17.78
2018-07-11T09:18:08.763Z,17.87
2018-07-11T09:19:17.666Z,17.93
2018-07-11T09:20:26.313Z,17.98
2018-07-11T09:21:34.958Z,18.02
2018-07-11T09:22:43.610Z,18.05
2018-07-11T09:23:52.260Z,18.08
2018-07-11T09:25:00.909Z,18.23
2018-07-11T09:26:09.553Z,18.12
2018-07-11T09:27:18.470Z,18.19
2018-07-11T09:28:27.122Z,18.34
2018-07-11T09:29:35.765Z,18.36
2018-07-11T09:30:44.415Z,18.49
2018-07-11T09:31:53.056Z,18.55
2018-07-11T09:33:01.713Z,18.66
2018-07-11T09:34:10.882Z,18.74
2018-07-11T09:35:19.529Z,18.86
2018-07-11T09:36:28.171Z,18.89
2018-07-11T09:37:36.860Z,19.15
2018-07-11T09:38:45.481Z,19.15
2018-07-11T09:39:54.132Z,19.15
2018-07-11T09:41:02.763Z,19.32
2018-07-11T09:42:11.414Z,19.35
2018-07-11T09:43:20.070Z,19.44
2018-07-11T09:44:28.720Z,19.42
2018-07-11T09:45:37.440Z,19.48
2018-07-11T09:46:46.444Z,19.48
2018-07-11T09:47:55.100Z,19.59
2018-07-11T09:49:03.743Z,19.63
2018-07-11T09:50:12.399Z,19.6
2018-07-11T09:51:21.302Z,19.67
2018-07-11T09:52:29.957Z,19.64
2018-07-11T09:53:38.601Z,19.6
2018-07-11T09:54:47.267Z,19.63
2018-07-11T09:55:55.912Z,19.62
2018-07-11T09:57:04.563Z,19.66
2018-07-11T09:58:13.476Z,19.62
2018-07-11T09:59:22.128Z,19.57
2018-07-11T10:00:30.775Z,19.55
2018-07-11T10:01:39.420Z,19.56
2018-07-11T10:02:48.064Z,19.47
2018-07-11T10:03:56.710Z,19.53
2018-07-11T10:05:05.660Z,19.52
2018-07-11T10:06:14.288Z,19.37
2018-07-11T10:07:22.943Z,19.44
2018-07-11T10:08:31.582Z,19.53
2018-07-11T10:09:40.245Z,19.41
2018-07-11T10:10:48.888Z,19.47
2018-07-11T10:11:57.554Z,19.47
2018-07-11T10:13:06.181Z,19.44
2018-07-11T10:14:14.840Z,19.49
2018-07-11T10:15:23.486Z,19.37
2018-07-11T10:16:32.136Z,19.38
2018-07-11T10:17:40.773Z,19.39
2018-07-11T10:18:49.427Z,19.47
2018-07-11T10:19:58.079Z,19.42
2018-07-11T10:21:06.731Z,19.39
2018-07-11T10:22:15.383Z,19.45
2018-07-11T10:23:24.021Z,19.49
2018-07-11T10:24:32.673Z,19.57
2018-07-11T10:25:41.316Z,19.7
2018-07-11T10:26:49.972Z,19.74
2018-07-11T10:27:58.615Z,19.72
2018-07-11T10:29:07.533Z,19.78
2018-07-11T10:30:16.175Z,19.75
2018-07-11T10:31:25.098Z,19.7
2018-07-11T10:32:33.739Z,19.67
2018-07-11T10:33:42.453Z,19.7
2018-07-11T10:34:51.415Z,19.63
2018-07-11T10:36:00.074Z,19.64
2018-07-11T10:37:08.719Z,19.66
2018-07-11T10:38:17.361Z,19.48
2018-07-11T10:39:26.013Z,19.6
2018-07-11T10:40:34.667Z,19.57
2018-07-11T10:41:43.308Z,19.44
2018-07-11T10:42:51.957Z,19.6
2018-07-11T10:44:00.867Z,19.59
2018-07-11T10:45:09.529Z,19.6
2018-07-11T10:46:18.172Z,19.66
2018-07-11T10:47:26.823Z,19.72
2018-07-11T10:48:35.991Z,19.92
2018-07-11T10:49:44.647Z,20
2018-07-11T10:50:53.290Z,20.03
2018-07-11T10:52:01.942Z,20.1
2018-07-11T10:53:10.589Z,20.27
2018-07-11T10:54:19.245Z,20.29
2018-07-11T10:55:27.892Z,20.32
2018-07-11T10:56:36.538Z,20.29
2018-07-11T10:57:45.476Z,20.26
2018-07-11T10:58:54.358Z,20.17
2018-07-11T11:00:03.013Z,20.19
2018-07-11T11:01:11.698Z,20.08
2018-07-11T11:02:20.310Z,19.97
2018-07-11T11:03:28.956Z,19.94
2018-07-11T11:04:38.181Z,19.9
2018-07-11T11:05:47.128Z,19.78
2018-07-11T11:06:55.838Z,19.64
2018-07-11T11:08:04.587Z,19.7
2018-07-11T11:09:13.220Z,19.47
2018-07-11T11:10:21.907Z,19.39
2018-07-11T11:11:30.605Z,19.37
2018-07-11T11:12:39.508Z,19.23
2018-07-11T11:13:48.205Z,19.17
2018-07-11T11:14:57.195Z,19.09
2018-07-11T11:16:05.848Z,18.97
2018-07-11T11:17:14.493Z,19
2018-07-11T11:18:23.212Z,18.96
2018-07-11T11:19:32.454Z,18.74
2018-07-11T11:20:43.620Z,18.74
2018-07-11T11:21:52.345Z,18.63
2018-07-11T11:23:01.020Z,18.55
2018-07-11T11:24:09.707Z,18.46
2018-07-11T11:25:18.626Z,18.26
2018-07-11T11:26:27.299Z,18.24
2018-07-11T11:27:35.984Z,18.08
2018-07-11T11:28:44.676Z,18.02
2018-07-11T11:29:53.347Z,18.02
2018-07-11T11:31:02.004Z,17.97
2018-07-11T11:32:10.650Z,17.84
2018-07-11T11:33:19.554Z,17.88
2018-07-11T11:34:28.462Z,17.88
2018-07-11T11:35:37.133Z,17.82
2018-07-11T11:36:45.765Z,17.75
2018-07-11T11:37:54.410Z,17.66
2018-07-11T11:39:03.058Z,17.56
2018-07-11T11:40:11.703Z,17.65
2018-07-11T11:41:20.354Z,17.54
2018-07-11T11:42:29.168Z,17.56
2018-07-11T11:43:37.648Z,17.54
2018-07-11T11:44:46.293Z,17.68
2018-07-11T11:45:54.943Z,17.76
2018-07-11T11:47:03.585Z,17.9
2018-07-11T11:48:12.234Z,17.91
2018-07-11T11:49:20.875Z,18
2018-07-11T11:50:29.525Z,17.97
2018-07-11T11:51:38.172Z,17.94
2018-07-11T11:52:46.834Z,17.95
2018-07-11T11:53:55.483Z,17.95
2018-07-11T11:55:04.417Z,17.9
2018-07-11T11:56:13.326Z,17.97
2018-07-11T11:57:22.236Z,18.02
2018-07-11T11:58:31.269Z,17.93
2018-07-11T11:59:40.181Z,17.91
2018-07-11T12:00:48.884Z,17.91
2018-07-11T12:01:57.543Z,17.95
2018-07-11T12:03:06.469Z,17.98
2018-07-11T12:04:15.111Z,18.08
2018-07-11T12:05:23.759Z,18.06
2018-07-11T12:06:32.403Z,18.08
2018-07-11T12:07:41.075Z,18
2018-07-11T12:08:49.690Z,18.06
2018-07-11T12:09:58.457Z,18.03
2018-07-11T12:11:07.122Z,18.15
2018-07-11T12:12:15.769Z,18.21
2018-07-11T12:13:24.421Z,18.21
2018-07-11T12:14:33.331Z,18.12
2018-07-11T12:15:41.992Z,18.15
2018-07-11T12:16:50.905Z,18.24
2018-07-11T12:17:59.555Z,18.24
2018-07-11T12:19:08.211Z,18.24
2018-07-11T12:20:16.857Z,18.19
2018-07-11T12:21:25.516Z,18.24
2018-07-11T12:22:34.149Z,18.26
2018-07-11T12:23:42.798Z,18.36
2018-07-11T12:24:51.447Z,18.26
2018-07-11T12:26:00.090Z,18.34
2018-07-11T12:27:08.740Z,18.37
2018-07-11T12:28:17.389Z,18.37
2018-07-11T12:29:26.037Z,18.43
2018-07-11T12:30:34.688Z,18.46
2018-07-11T12:31:43.331Z,18.53
2018-07-11T12:32:51.980Z,18.63
2018-07-11T12:34:00.628Z,18.55
2018-07-11T12:35:09.280Z,18.51
2018-07-11T12:36:18.185Z,18.52
2018-07-11T12:37:26.838Z,18.64
2018-07-11T12:38:35.480Z,18.49
2018-07-11T12:39:44.137Z,18.58
2018-07-11T12:40:52.775Z,18.55
2018-07-11T12:42:01.426Z,18.58
2018-07-11T12:43:10.603Z,18.61
2018-07-11T12:44:19.261Z,18.51
2018-07-11T12:45:27.902Z,18.51
2018-07-11T12:46:36.804Z,18.55
2018-07-11T12:47:45.449Z,18.51
2018-07-11T12:48:54.359Z,18.48
2018-07-11T12:50:03.016Z,18.45
2018-07-11T12:51:11.660Z,18.37
2018-07-11T12:52:20.317Z,18.36
2018-07-11T12:53:28.952Z,18.36
2018-07-11T12:54:37.608Z,18.24
2018-07-11T12:55:46.252Z,18.26
2018-07-11T12:56:54.902Z,18.26
2018-07-11T12:58:03.541Z,18.11
2018-07-11T12:59:12.199Z,18.18
2018-07-11T13:00:20.848Z,18.26
2018-07-11T13:01:29.497Z,18.08
2018-07-11T13:02:38.135Z,18.12
2018-07-11T13:03:46.783Z,18.13
2018-07-11T13:04:55.703Z,18.09
2018-07-11T13:06:04.620Z,18.11
2018-07-11T13:07:13.530Z,18.05
2018-07-11T13:08:22.425Z,18.11
2018-07-11T13:09:31.075Z,17.93
2018-07-11T13:10:39.720Z,17.93
2018-07-11T13:11:48.375Z,17.93
2018-07-11T13:12:57.012Z,17.86
2018-07-11T13:14:05.935Z,17.8
2018-07-11T13:15:14.574Z,17.78
2018-07-11T13:16:23.251Z,17.76
2018-07-11T13:17:31.870Z,17.8
2018-07-11T13:18:41.041Z,17.79
2018-07-11T13:19:49.686Z,17.86
2018-07-11T13:20:58.342Z,17.82
2018-07-11T13:22:06.986Z,17.82
2018-07-11T13:23:15.628Z,17.76
2018-07-11T13:24:24.272Z,17.71
2018-07-11T13:25:32.951Z,17.78
2018-07-11T13:26:41.572Z,17.82
2018-07-11T13:27:50.211Z,17.76
2018-07-11T13:28:58.862Z,17.8
2018-07-11T13:30:07.503Z,17.79
2018-07-11T13:31:16.159Z,17.84
2018-07-11T13:32:24.798Z,17.8
2018-07-11T13:33:33.446Z,17.87
2018-07-11T13:34:42.087Z,18.05
2018-07-11T13:35:50.741Z,18.08
2018-07-11T13:36:59.381Z,18.16
2018-07-11T13:38:08.062Z,18.24
2018-07-11T13:39:16.673Z,18.31
2018-07-11T13:40:25.584Z,18.41
2018-07-11T13:41:34.493Z,18.55
2018-07-11T13:42:43.141Z,18.63
2018-07-11T13:43:52.050Z,18.73
2018-07-11T13:45:00.692Z,18.76
2018-07-11T13:46:09.339Z,18.94
2018-07-11T13:47:17.988Z,18.96
2018-07-11T13:48:26.640Z,19
2018-07-11T13:49:35.284Z,19.04
2018-07-11T13:50:43.929Z,19.16
2018-07-11T13:51:52.575Z,19.22
2018-07-11T13:53:01.227Z,19.26
2018-07-11T13:54:09.868Z,19.44
2018-07-11T13:55:18.519Z,19.45
2018-07-11T13:56:27.171Z,19.49
2018-07-11T13:57:36.083Z,19.44
2018-07-11T13:58:44.729Z,19.48
2018-07-11T13:59:53.376Z,19.49
2018-07-11T14:01:02.022Z,19.48
2018-07-11T14:02:10.670Z,19.48
2018-07-11T14:03:19.320Z,19.37
2018-07-11T14:04:27.968Z,19.38
2018-07-11T14:05:36.616Z,19.3
2018-07-11T14:06:45.522Z,19.35
2018-07-11T14:07:54.175Z,19.12
2018-07-11T14:09:02.825Z,19.16
2018-07-11T14:10:11.474Z,19.16
2018-07-11T14:11:20.114Z,19.19
2018-07-11T14:12:29.034Z,19.24
2018-07-11T14:13:37.682Z,19.26
2018-07-11T14:14:46.334Z,19.34
2018-07-11T14:15:54.976Z,19.32
2018-07-11T14:17:03.628Z,19.53
2018-07-11T14:18:12.540Z,19.53
2018-07-11T14:19:21.190Z,19.64
2018-07-11T14:20:29.878Z,19.82
2018-07-11T14:21:38.484Z,19.77
2018-07-11T14:22:47.133Z,19.93
2018-07-11T14:23:56.051Z,20.12
2018-07-11T14:25:04.714Z,20.22
2018-07-11T14:26:13.358Z,20.19
2018-07-11T14:27:22.007Z,20.24
2018-07-11T14:28:30.656Z,20.26
2018-07-11T14:29:39.645Z,20.29
2018-07-11T14:30:48.223Z,20.34
2018-07-11T14:31:56.872Z,20.34
2018-07-11T14:33:05.784Z,20.32
2018-07-11T14:34:14.426Z,20.29
2018-07-11T14:35:23.073Z,20.24
2018-07-11T14:36:31.727Z,20.24
2018-07-11T14:37:40.646Z,20.44
2018-07-11T14:38:49.566Z,20.4
2018-07-11T14:39:58.470Z,20.34
2018-07-11T14:41:07.120Z,20.27
2018-07-11T14:42:15.768Z,20.32
2018-07-11T14:43:24.421Z,20.21
2018-07-11T14:44:33.068Z,20.19
2018-07-11T14:45:41.766Z,20.26
2018-07-11T14:46:50.364Z,20.15
2018-07-11T14:47:59.016Z,20.17